createdAt,value
2018-10-11T00:01:12.063Z,11.99
2018-10-11T00:03:41.944Z,11.96
2018-10-11T00:06:11.764Z,11.87
2018-10-11T00:08:41.678Z,11.87
2018-10-11T00:11:11.651Z,11.86
2018-10-11T00:13:41.626Z,11.87
2018-10-11T00:16:11.554Z,11.83
2018-10-11T00:18:41.449Z,11.81
2018-10-11T00:21:11.348Z,11.80
2018-10-11T00:23:41.257Z,11.81
2018-10-11T00:26:11.157Z,11.78
2018-10-11T00:28:41.040Z,11.81
2018-10-11T00:31:10.929Z,11.80
2018-10-11T00:33:40.822Z,11.82
2018-10-11T00:36:10.699Z,11.87
2018-10-11T00:38:40.598Z,11.83
2018-10-11T00:41:10.653Z,11.77
2018-10-11T00:43:40.525Z,11.77
2018-10-11T00:46:10.434Z,11.75
2018-10-11T00:48:40.343Z,11.73
2018-10-11T00:51:10.275Z,11.68
2018-10-11T00:53:40.156Z,11.66
2018-10-11T00:56:09.994Z,11.64
2018-10-11T00:58:39.884Z,11.63
2018-10-11T01:01:09.789Z,11.60
2018-10-11T01:03:40.180Z,11.51
2018-10-11T01:06:10.665Z,11.54
2018-10-11T01:08:40.855Z,11.52
2018-10-11T01:11:10.970Z,11.45
2018-10-11T01:13:41.119Z,11.41
2018-10-11T01:16:10.966Z,11.40
2018-10-11T01:18:40.896Z,11.40
2018-10-11T01:21:10.866Z,11.41
2018-10-11T01:23:40.787Z,11.43
2018-10-11T01:26:10.749Z,11.46
2018-10-11T01:28:40.631Z,11.47
2018-10-11T01:31:15.695Z,11.49
2018-10-11T01:33:45.650Z,11.48
2018-10-11T01:36:15.569Z,11.48
2018-10-11T01:38:46.366Z,11.46
2018-10-11T01:41:16.349Z,11.43
2018-10-11T01:43:46.247Z,11.42
2018-10-11T01:46:16.189Z,11.38
2018-10-11T01:48:46.068Z,11.28
2018-10-11T01:51:16.017Z,11.19
2018-10-11T01:53:45.957Z,11.14
2018-10-11T01:56:15.849Z,11.17
2018-10-11T01:58:45.777Z,11.14
2018-10-11T02:01:15.699Z,11.15
2018-10-11T02:03:45.572Z,11.16
2018-10-11T02:06:15.453Z,11.15
2018-10-11T02:08:45.440Z,11.12
2018-10-11T02:11:15.305Z,11.08
2018-10-11T02:13:45.186Z,11.02
2018-10-11T02:16:15.124Z,10.98
2018-10-11T02:18:45.037Z,10.91
2018-10-11T02:21:14.921Z,10.93
2018-10-11T02:23:44.879Z,10.90
2018-10-11T02:26:14.844Z,10.87
2018-10-11T02:28:44.748Z,10.83
2018-10-11T02:31:14.640Z,10.83
2018-10-11T02:33:44.547Z,10.80
2018-10-11T02:36:14.500Z,10.80
2018-10-11T02:38:44.392Z,10.80
2018-10-11T02:41:14.232Z,10.82
2018-10-11T02:43:44.064Z,10.77
2018-10-11T02:46:13.943Z,10.78
2018-10-11T02:48:43.804Z,10.77
2018-10-11T02:51:13.678Z,10.77
2018-10-11T02:53:43.810Z,10.73
2018-10-11T02:56:13.714Z,10.61
2018-10-11T02:58:54.447Z,10.56
2018-10-11T03:01:24.379Z,10.47
2018-10-11T03:04:03.264Z,10.44
2018-10-11T03:06:34.931Z,10.40
2018-10-11T03:09:06.604Z,10.42
2018-10-11T03:11:37.653Z,10.45
2018-10-11T03:14:07.807Z,10.48
2018-10-11T03:16:37.677Z,10.49
2018-10-11T03:19:07.625Z,10.46
2018-10-11T03:21:37.517Z,10.47
2018-10-11T03:24:07.470Z,10.45
2018-10-11T03:26:37.374Z,10.43
2018-10-11T03:29:07.261Z,10.41
2018-10-11T03:31:37.112Z,10.40
2018-10-11T03:34:07.119Z,10.38
2018-10-11T03:36:37.038Z,10.36
2018-10-11T03:39:07.939Z,10.30
2018-10-11T03:41:37.850Z,10.33
2018-10-11T03:44:07.737Z,10.31
2018-10-11T03:46:37.652Z,10.26
2018-10-11T03:49:08.034Z,10.21
2018-10-11T03:51:37.944Z,10.18
2018-10-11T03:54:07.950Z,10.19
2018-10-11T03:56:37.824Z,10.18
2018-10-11T03:59:08.212Z,10.17
2018-10-11T04:01:38.148Z,10.13
2018-10-11T04:04:07.967Z,10.14
2018-10-11T04:06:37.924Z,10.10
2018-10-11T04:09:08.304Z,10.07
2018-10-11T04:11:38.116Z,10.09
2018-10-11T04:14:08.083Z,10.02
2018-10-11T04:16:37.961Z,10.03
2018-10-11T04:19:08.192Z,10.01
2018-10-11T04:21:38.059Z,10.01
2018-10-11T04:24:07.966Z,10.05
2018-10-11T04:26:37.880Z,10.01
2018-10-11T04:29:07.751Z,9.98
2018-10-11T04:31:37.550Z,9.95
2018-10-11T04:34:07.401Z,9.92
2018-10-11T04:36:37.318Z,9.95
2018-10-11T04:39:09.032Z,9.95
2018-10-11T04:41:41.991Z,9.95
2018-10-11T04:44:12.322Z,9.92
2018-10-11T04:46:42.207Z,9.91
2018-10-11T04:49:12.807Z,9.91
2018-10-11T04:51:43.821Z,9.96
2018-10-11T04:54:14.042Z,9.91
2018-10-11T04:56:44.340Z,9.88
2018-10-11T04:59:14.053Z,9.91
2018-10-11T05:01:45.299Z,9.91
2018-10-11T05:04:16.055Z,9.87
2018-10-11T05:06:46.087Z,9.81
2018-10-11T05:09:15.883Z,9.82
2018-10-11T05:11:45.958Z,9.85
2018-10-11T05:14:16.076Z,9.83
2018-10-11T05:16:46.507Z,9.83
2018-10-11T05:19:16.471Z,9.80
2018-10-11T05:21:46.730Z,9.73
2018-10-11T05:24:16.831Z,9.77
2018-10-11T05:26:47.569Z,9.81
2018-10-11T05:29:18.281Z,9.81
2018-10-11T05:31:48.443Z,9.81
2018-10-11T05:34:19.305Z,9.86
2018-10-11T05:36:49.974Z,9.87
2018-10-11T05:39:19.726Z,9.93
2018-10-11T05:41:49.924Z,9.94
2018-10-11T05:44:20.244Z,10.03
2018-10-11T05:46:50.870Z,10.06
2018-10-11T05:49:20.671Z,10.14
2018-10-11T05:51:50.845Z,10.21
2018-10-11T05:54:20.640Z,10.30
2018-10-11T05:56:51.243Z,10.44
2018-10-11T05:59:21.785Z,10.64
2018-10-11T06:01:52.396Z,10.77
2018-10-11T06:04:22.187Z,10.91
2018-10-11T06:06:53.584Z,11.06
2018-10-11T06:09:23.897Z,11.17
2018-10-11T06:11:54.675Z,11.26
2018-10-11T06:14:24.438Z,11.38
2018-10-11T06:16:54.931Z,11.41
2018-10-11T06:19:24.760Z,11.41
2018-10-11T06:21:54.868Z,11.48
2018-10-11T06:24:24.930Z,11.54
2018-10-11T06:26:55.276Z,11.65
2018-10-11T06:29:26.445Z,11.78
2018-10-11T06:31:56.197Z,11.85
2018-10-11T06:34:26.079Z,11.93
2018-10-11T06:36:56.565Z,12.06
2018-10-11T06:39:26.385Z,12.18
2018-10-11T06:41:56.486Z,12.28
2018-10-11T06:44:27.893Z,12.28
2018-10-11T06:46:58.186Z,12.29
2018-10-11T06:49:29.211Z,12.35
2018-10-11T06:52:00.220Z,12.46
2018-10-11T06:54:30.046Z,12.59
2018-10-11T06:57:00.454Z,12.66
2018-10-11T06:59:30.132Z,12.73
2018-10-11T07:02:00.643Z,12.91
2018-10-11T07:04:31.460Z,13.05
2018-10-11T07:07:01.850Z,13.12
2018-10-11T07:09:32.383Z,13.11
2018-10-11T07:12:03.167Z,13.12
2018-10-11T07:14:33.958Z,13.13
2018-10-11T07:17:05.773Z,13.17
2018-10-11T07:19:35.974Z,13.26
2018-10-11T07:22:06.735Z,13.37
2018-10-11T07:24:37.277Z,13.46
2018-10-11T07:27:07.196Z,13.67
2018-10-11T07:29:38.157Z,13.82
2018-10-11T07:32:10.021Z,13.89
2018-10-11T07:34:39.831Z,14.00
2018-10-11T07:37:09.471Z,14.01
2018-10-11T07:39:40.760Z,14.04
2018-10-11T07:42:10.926Z,14.10
2018-10-11T07:44:41.665Z,14.22
2018-10-11T07:47:12.241Z,14.39
2018-10-11T07:49:43.541Z,14.42
2018-10-11T07:52:15.021Z,14.50
2018-10-11T07:54:45.806Z,14.61
2018-10-11T07:57:15.910Z,14.61
2018-10-11T07:59:47.007Z,14.73
2018-10-11T08:02:17.956Z,14.92
2018-10-11T08:04:47.940Z,15.14
2018-10-11T08:07:18.387Z,15.33
2018-10-11T08:09:48.115Z,15.57
2018-10-11T08:12:18.130Z,15.69
2018-10-11T08:14:48.658Z,15.79
2018-10-11T08:17:19.093Z,16.06
2018-10-11T08:19:49.158Z,16.17
2018-10-11T08:22:20.207Z,16.44
2018-10-11T08:24:50.090Z,16.63
2018-10-11T08:27:21.351Z,16.87
2018-10-11T08:29:52.145Z,16.93
2018-10-11T08:32:22.080Z,17.08
2018-10-11T08:34:51.880Z,16.56
2018-10-11T08:37:21.719Z,17.45
2018-10-11T08:39:51.600Z,17.68
2018-10-11T08:42:21.396Z,17.94
2018-10-11T08:44:51.265Z,18.26
2018-10-11T08:47:21.145Z,18.49
2018-10-11T08:49:51.039Z,18.56
2018-10-11T08:52:20.881Z,18.62
2018-10-11T08:54:51.845Z,18.67
2018-10-11T08:57:22.588Z,19.02
2018-10-11T08:59:52.524Z,19.29
2018-10-11T09:02:22.348Z,19.66
2018-10-11T09:04:52.200Z,19.86
2018-10-11T09:07:22.034Z,20.09
2018-10-11T09:09:53.685Z,20.15
2018-10-11T09:12:21.703Z,20.28
2018-10-11T09:14:51.610Z,20.45
2018-10-11T09:17:21.411Z,20.57
2018-10-11T09:19:51.154Z,20.63
2018-10-11T09:22:21.039Z,20.69
2018-10-11T09:24:50.873Z,20.58
2018-10-11T09:27:20.803Z,20.62
2018-10-11T09:29:50.699Z,20.77
2018-10-11T09:32:20.470Z,20.85
2018-10-11T09:34:50.343Z,20.90
2018-10-11T09:37:20.217Z,20.95
2018-10-11T09:39:50.009Z,20.93
2018-10-11T09:42:19.876Z,20.91
2018-10-11T09:44:49.731Z,20.93
2018-10-11T09:47:19.681Z,21.00
2018-10-11T09:49:49.435Z,21.02
2018-10-11T09:52:19.195Z,21.00
2018-10-11T09:54:49.114Z,21.05
2018-10-11T09:57:24.532Z,21.12
2018-10-11T09:59:54.460Z,21.03
2018-10-11T10:02:25.288Z,21.10
2018-10-11T10:04:58.326Z,21.11
2018-10-11T10:07:28.242Z,21.16
2018-10-11T10:09:58.287Z,21.11
2018-10-11T10:12:27.964Z,20.93
2018-10-11T10:14:57.939Z,20.62
2018-10-11T10:17:27.775Z,20.58
2018-10-11T10:19:57.738Z,20.67
2018-10-11T10:22:27.554Z,20.53
2018-10-11T10:24:57.406Z,20.43
2018-10-11T10:27:27.318Z,20.43
2018-10-11T10:29:57.162Z,20.37
2018-10-11T10:32:26.960Z,20.19
2018-10-11T10:34:56.867Z,19.91
2018-10-11T10:37:26.798Z,19.84
2018-10-11T10:39:56.758Z,19.92
2018-10-11T10:42:26.464Z,20.00
2018-10-11T10:44:56.322Z,20.14
2018-10-11T10:47:26.155Z,20.22
2018-10-11T10:49:56.015Z,20.26
2018-10-11T10:52:25.813Z,20.26
2018-10-11T10:54:55.693Z,20.24
2018-10-11T10:57:25.568Z,20.23
2018-10-11T10:59:55.470Z,20.22
2018-10-11T11:02:25.277Z,20.23
2018-10-11T11:04:55.194Z,20.24
2018-10-11T11:07:25.171Z,20.20
2018-10-11T11:09:54.948Z,20.17
2018-10-11T11:12:24.768Z,20.24
2018-10-11T11:14:54.703Z,20.27
2018-10-11T11:17:24.556Z,20.25
2018-10-11T11:19:54.354Z,20.18
2018-10-11T11:22:24.145Z,20.21
2018-10-11T11:24:54.008Z,20.23
2018-10-11T11:27:23.957Z,20.16
2018-10-11T11:29:53.791Z,20.19
2018-10-11T11:32:23.571Z,20.21
2018-10-11T11:34:53.412Z,20.28
2018-10-11T11:37:23.323Z,20.27
2018-10-11T11:39:53.114Z,20.29
2018-10-11T11:42:22.926Z,20.20
2018-10-11T11:44:52.899Z,20.15
2018-10-11T11:47:22.751Z,20.21
2018-10-11T11:49:52.613Z,20.26
2018-10-11T11:52:22.529Z,20.33
2018-10-11T11:54:52.446Z,20.27
2018-10-11T11:57:22.411Z,20.29
2018-10-11T11:59:52.320Z,20.24
2018-10-11T12:02:22.388Z,20.17
2018-10-11T12:04:52.507Z,20.12
2018-10-11T12:07:22.332Z,19.99
2018-10-11T12:09:52.115Z,20.18
2018-10-11T12:12:31.974Z,20.13
2018-10-11T12:15:01.827Z,20.07
2018-10-11T12:17:31.662Z,20.04
2018-10-11T12:20:01.552Z,20.00
2018-10-11T12:22:31.327Z,20.13
2018-10-11T12:25:01.283Z,20.21
2018-10-11T12:27:31.191Z,20.18
2018-10-11T12:30:01.117Z,20.16
2018-10-11T12:32:31.044Z,20.18
2018-10-11T12:35:00.927Z,20.19
2018-10-11T12:37:30.811Z,20.16
2018-10-11T12:40:01.028Z,20.15
2018-10-11T12:42:31.377Z,20.11
2018-10-11T12:45:01.212Z,20.20
2018-10-11T12:47:31.130Z,20.20
2018-10-11T12:50:01.131Z,20.18
2018-10-11T12:52:30.922Z,20.15
2018-10-11T12:55:00.924Z,20.14
2018-10-11T12:57:30.853Z,20.12
2018-10-11T13:00:01.616Z,20.09
2018-10-11T13:02:31.487Z,20.05
2018-10-11T13:05:01.354Z,20.08
2018-10-11T13:07:31.291Z,20.11
2018-10-11T13:10:01.292Z,20.20
2018-10-11T13:12:31.124Z,20.21
2018-10-11T13:15:01.050Z,20.16
2018-10-11T13:17:37.006Z,20.17
2018-10-11T13:20:00.701Z,20.12
2018-10-11T13:22:30.517Z,20.17
2018-10-11T13:25:00.560Z,20.14
2018-10-11T13:27:30.467Z,20.09
2018-10-11T13:30:00.301Z,20.16
2018-10-11T13:32:30.119Z,20.11
2018-10-11T13:35:00.407Z,20.17
2018-10-11T13:37:31.052Z,20.17
2018-10-11T13:40:01.365Z,20.21
2018-10-11T13:42:31.897Z,20.16
2018-10-11T13:45:01.858Z,20.15
2018-10-11T13:47:35.294Z,20.05
2018-10-11T13:50:02.423Z,19.94
2018-10-11T13:52:32.602Z,19.92
2018-10-11T13:55:08.121Z,19.92
2018-10-11T13:57:32.954Z,19.92
2018-10-11T14:00:02.803Z,20.00
2018-10-11T14:02:32.703Z,20.06
2018-10-11T14:05:02.571Z,20.06
2018-10-11T14:07:32.574Z,19.99
2018-10-11T14:10:02.432Z,19.94
2018-10-11T14:12:32.234Z,19.95
2018-10-11T14:15:02.126Z,19.94
2018-10-11T14:17:31.948Z,20.05
2018-10-11T14:20:01.773Z,20.04
2018-10-11T14:22:31.710Z,20.05
2018-10-11T14:25:01.633Z,20.01
2018-10-11T14:27:31.518Z,19.92
2018-10-11T14:30:01.347Z,19.86
2018-10-11T14:32:31.191Z,19.84
2018-10-11T14:35:01.109Z,19.85
2018-10-11T14:37:31.007Z,19.89
2018-10-11T14:40:01.074Z,19.91
2018-10-11T14:42:31.362Z,19.87
2018-10-11T14:45:01.359Z,19.82
2018-10-11T14:47:31.375Z,19.75
2018-10-11T14:50:01.370Z,19.68
2018-10-11T14:52:31.425Z,19.72
2018-10-11T14:55:01.493Z,19.64
2018-10-11T14:57:31.559Z,19.66
2018-10-11T15:00:01.645Z,19.61
2018-10-11T15:02:31.590Z,19.61
2018-10-11T15:05:01.530Z,19.57
2018-10-11T15:07:31.444Z,19.51
2018-10-11T15:10:01.387Z,19.49
2018-10-11T15:12:34.397Z,19.51
2018-10-11T15:15:04.371Z,19.47
2018-10-11T15:17:34.298Z,19.41
2018-10-11T15:20:04.186Z,19.35
2018-10-11T15:22:34.075Z,19.30
2018-10-11T15:25:03.967Z,19.23
2018-10-11T15:27:33.969Z,19.23
2018-10-11T15:30:03.815Z,19.16
2018-10-11T15:32:33.607Z,19.11
2018-10-11T15:35:03.627Z,19.08
2018-10-11T15:37:33.570Z,19.01
2018-10-11T15:40:03.398Z,19.01
2018-10-11T15:42:33.408Z,18.96
2018-10-11T15:45:03.294Z,18.90
2018-10-11T15:47:33.192Z,18.83
2018-10-11T15:50:03.052Z,18.79
2018-10-11T15:52:32.965Z,18.72
2018-10-11T15:55:02.847Z,18.64
2018-10-11T15:57:32.695Z,18.57
2018-10-11T16:00:02.639Z,18.51
2018-10-11T16:02:32.472Z,18.44
2018-10-11T16:05:02.398Z,18.33
2018-10-11T16:07:32.395Z,18.22
2018-10-11T16:10:02.419Z,18.08
2018-10-11T16:12:32.260Z,17.93
2018-10-11T16:15:02.189Z,17.79
2018-10-11T16:17:32.169Z,17.67
2018-10-11T16:20:02.059Z,17.56
2018-10-11T16:22:32.837Z,17.44
2018-10-11T16:25:02.753Z,17.34
2018-10-11T16:27:32.670Z,17.25
2018-10-11T16:30:02.659Z,17.16
2018-10-11T16:32:32.521Z,17.10
2018-10-11T16:35:02.379Z,17.03
2018-10-11T16:37:32.303Z,16.96
2018-10-11T16:40:02.159Z,16.87
2018-10-11T16:42:32.033Z,16.77
2018-10-11T16:45:02.077Z,16.68
2018-10-11T16:47:32.025Z,16.55
2018-10-11T16:50:02.156Z,16.46
2018-10-11T16:52:31.966Z,16.39
2018-10-11T16:55:01.831Z,16.37
2018-10-11T16:57:31.779Z,16.34
2018-10-11T17:00:01.764Z,16.34
2018-10-11T17:02:31.638Z,16.34
2018-10-11T17:05:01.603Z,16.30
2018-10-11T17:07:31.562Z,16.24
2018-10-11T17:10:01.548Z,16.21
2018-10-11T17:12:31.416Z,16.14
2018-10-11T17:15:01.326Z,16.13
2018-10-11T17:17:31.178Z,16.08
2018-10-11T17:20:01.059Z,15.98
2018-10-11T17:22:30.954Z,15.89
2018-10-11T17:25:00.825Z,15.82
2018-10-11T17:27:30.807Z,15.77
2018-10-11T17:30:00.752Z,15.72
2018-10-11T17:32:30.603Z,15.66
2018-10-11T17:35:00.487Z,15.57
2018-10-11T17:37:30.447Z,15.51
2018-10-11T17:40:00.398Z,15.48
2018-10-11T17:42:30.328Z,15.48
2018-10-11T17:45:00.288Z,15.45
2018-10-11T17:47:30.246Z,15.44
2018-10-11T17:50:00.177Z,15.50
2018-10-11T17:52:30.019Z,15.48
2018-10-11T17:54:59.943Z,15.44
2018-10-11T17:57:29.915Z,15.39
2018-10-11T17:59:59.765Z,15.31
2018-10-11T18:02:29.725Z,15.25
2018-10-11T18:04:59.759Z,15.19
2018-10-11T18:07:29.777Z,15.10
2018-10-11T18:09:59.431Z,14.99
2018-10-11T18:12:29.328Z,14.92
2018-10-11T18:14:59.432Z,14.90
2018-10-11T18:17:29.498Z,14.89
2018-10-11T18:19:59.691Z,14.90
2018-10-11T18:22:29.670Z,14.86
2018-10-11T18:24:59.634Z,14.83
2018-10-11T18:27:30.204Z,14.80
2018-10-11T18:30:00.305Z,14.75
2018-10-11T18:32:30.375Z,14.71
2018-10-11T18:35:00.519Z,14.68
2018-10-11T18:37:32.161Z,14.63
2018-10-11T18:40:02.159Z,14.55
2018-10-11T18:42:32.297Z,14.47
2018-10-11T18:45:02.271Z,14.42
2018-10-11T18:47:32.327Z,14.37
2018-10-11T18:50:02.285Z,14.26
2018-10-11T18:52:32.638Z,14.15
2018-10-11T18:55:03.254Z,14.02
2018-10-11T18:57:33.432Z,13.93
2018-10-11T19:00:03.895Z,13.72
2018-10-11T19:02:35.060Z,13.92
2018-10-11T19:05:09.367Z,13.94
2018-10-11T19:07:39.655Z,13.94
2018-10-11T19:10:09.819Z,13.94
2018-10-11T19:12:39.976Z,13.85
2018-10-11T19:15:10.744Z,13.84
2018-10-11T19:17:41.554Z,13.84
2018-10-11T19:20:13.033Z,13.85
2018-10-11T19:22:43.376Z,13.81
2018-10-11T19:25:13.864Z,13.76
2018-10-11T19:27:44.361Z,13.73
2018-10-11T19:30:14.560Z,13.69
2018-10-11T19:32:44.576Z,13.70
2018-10-11T19:35:14.631Z,13.65
2018-10-11T19:37:44.699Z,13.58
2018-10-11T19:40:14.638Z,13.55
2018-10-11T19:42:47.695Z,13.52
2018-10-11T19:45:17.748Z,13.54
2018-10-11T19:47:47.887Z,13.54
2018-10-11T19:50:18.165Z,13.49
2018-10-11T19:52:48.636Z,13.48
2018-10-11T19:55:18.696Z,13.28
2018-10-11T19:57:48.727Z,13.58
2018-10-11T20:00:18.687Z,13.56
2018-10-11T20:02:48.610Z,13.48
2018-10-11T20:05:18.713Z,13.45
2018-10-11T20:07:48.801Z,13.43
2018-10-11T20:10:18.820Z,13.38
2018-10-11T20:12:48.759Z,13.36
2018-10-11T20:15:18.930Z,13.32
2018-10-11T20:17:48.875Z,13.29
2018-10-11T20:20:18.879Z,13.22
2018-10-11T20:22:49.136Z,13.11
2018-10-11T20:25:19.304Z,13.09
2018-10-11T20:27:49.353Z,12.96
2018-10-11T20:30:19.350Z,12.85
2018-10-11T20:32:49.269Z,12.83
2018-10-11T20:35:19.144Z,12.82
2018-10-11T20:37:49.143Z,12.76
2018-10-11T20:40:19.071Z,12.73
2018-10-11T20:42:49.384Z,12.75
2018-10-11T20:45:19.327Z,12.75
2018-10-11T20:47:49.279Z,12.76
2018-10-11T20:50:19.147Z,12.78
2018-10-11T20:52:49.137Z,12.80
2018-10-11T20:55:19.095Z,12.80
2018-10-11T20:57:48.973Z,12.76
2018-10-11T21:00:18.955Z,12.76
2018-10-11T21:02:48.879Z,12.77
2018-10-11T21:05:18.892Z,12.74
2018-10-11T21:07:48.791Z,12.73
2018-10-11T21:10:18.642Z,12.67
2018-10-11T21:12:48.871Z,12.61
2018-10-11T21:15:19.164Z,12.60
2018-10-11T21:17:49.495Z,12.58
2018-10-11T21:20:19.892Z,12.54
2018-10-11T21:22:50.148Z,12.52
2018-10-11T21:25:20.235Z,12.51
2018-10-11T21:27:50.426Z,12.50
2018-10-11T21:30:20.512Z,12.46
2018-10-11T21:32:50.501Z,12.42
2018-10-11T21:35:20.438Z,12.35
2018-10-11T21:37:50.444Z,12.33
2018-10-11T21:40:20.661Z,12.29
2018-10-11T21:42:50.964Z,12.25
2018-10-11T21:45:20.895Z,12.22
2018-10-11T21:47:50.770Z,12.22
2018-10-11T21:50:20.734Z,12.17
2018-10-11T21:52:50.798Z,12.17
2018-10-11T21:55:20.655Z,12.15
2018-10-11T21:57:50.599Z,12.15
2018-10-11T22:00:24.271Z,12.08
2018-10-11T22:02:54.157Z,12.10
2018-10-11T22:05:24.146Z,12.09
2018-10-11T22:07:54.149Z,12.13
2018-10-11T22:10:24.370Z,12.10
2018-10-11T22:12:54.517Z,12.09
2018-10-11T22:15:24.756Z,12.08
2018-10-11T22:17:54.939Z,12.07
2018-10-11T22:20:24.821Z,12.01
2018-10-11T22:22:55.314Z,11.96
2018-10-11T22:25:25.272Z,11.91
2018-10-11T22:27:55.373Z,11.86
2018-10-11T22:30:25.318Z,11.77
2018-10-11T22:32:55.668Z,11.72
2018-10-11T22:35:25.584Z,11.72
2018-10-11T22:37:59.461Z,11.72
2018-10-11T22:40:29.490Z,11.66
2018-10-11T22:42:59.371Z,11.62
2018-10-11T22:45:29.339Z,11.60
2018-10-11T22:47:59.275Z,11.56
2018-10-11T22:50:29.138Z,11.50
2018-10-11T22:52:59.031Z,11.50
2018-10-11T22:55:31.808Z,11.48
2018-10-11T22:58:02.437Z,11.46
2018-10-11T23:00:32.405Z,11.48
2018-10-11T23:03:02.277Z,11.45
2018-10-11T23:05:32.241Z,11.47
2018-10-11T23:08:02.127Z,11.42
2018-10-11T23:10:31.995Z,11.38
2018-10-11T23:13:01.852Z,11.38
2018-10-11T23:15:31.707Z,11.37
2018-10-11T23:18:01.643Z,11.31
2018-10-11T23:20:31.463Z,11.30
2018-10-11T23:23:01.314Z,11.26
2018-10-11T23:25:31.192Z,11.22
2018-10-11T23:28:01.196Z,11.26
2018-10-11T23:30:31.050Z,11.27
2018-10-11T23:33:00.906Z,11.26
2018-10-11T23:35:30.756Z,11.26
2018-10-11T23:38:00.661Z,11.23
2018-10-11T23:40:30.524Z,11.19
2018-10-11T23:43:00.402Z,11.14
2018-10-11T23:45:30.302Z,11.08
2018-10-11T23:48:00.242Z,11.10
2018-10-11T23:50:30.133Z,11.10
2018-10-11T23:52:59.925Z,11.15
2018-10-11T23:55:31.912Z,11.12
2018-10-11T23:58:02.831Z,11.07
